5NC0 weather

Carolina Kidney Heliport
Goldsboro, North Carolina, United States

Public forecast

Using degrees Fahrenheit for public forecast. Weather courtesy of forecast.io.

Closest aviation weather report (METAR) to Carolina Kidney Heliport

Closest report is Goldsboro-Wayne Municipal Airport, 3.6 nm (6.7 km) NNW. Retrieved 2020/03/30 06:15 UTC (13 minutes ago):

KGWW 300615Z AUTO 00000KT 10SM CLR 21/15 A2996 RMK AO2 T02140147

Closest aviation forecast (TAF) to Carolina Kidney Heliport

Closest forecast is Seymour Johnson Air Force Base, 3.8 nm (7.0 km) S. Retrieved 2020-03-30 04:06 UTC (2 hours ago):

TAF KGSB 300400Z 3004/3110 23010KT 9999 BKN250 QNH2997INS WND 28010KT AFT 3006 BECMG 3013/3014 30010G17KT 9999 SCT150 SCT250 QNH2990INS BECMG 3023/3024 26006KT 9999 SKC QNH2988INS WND 32006KT AFT 3104 TX25/3020Z TN15/3104Z LAST NO AMDS AFT 3004 NEXT 3011